sensor_id;sensor_type;location;lat;lon;timestamp;pressure;altitude;pressure_sealevel;temperature;humidity
7407;BME280;3745;56.964;24.128;2023-04-28T00:00:00;101482.94;;;4.48;100.00
7407;BME280;3745;56.964;24.128;2023-04-28T00:02:26;101367.06;;;3.84;100.00
7407;BME280;3745;56.964;24.128;2023-04-28T00:04:52;101474.81;;;4.52;100.00
7407;BME280;3745;56.964;24.128;2023-04-28T00:07:18;101457.44;;;4.39;100.00
7407;BME280;3745;56.964;24.128;2023-04-28T00:09:44;101469.69;;;4.51;100.00
7407;BME280;3745;56.964;24.128;2023-04-28T00:12:09;101477.63;;;4.42;100.00
7407;BME280;3745;56.964;24.128;2023-04-28T00:14:35;101469.16;;;4.40;100.00
7407;BME280;3745;56.964;24.128;2023-04-28T00:17:01;101387.91;;;3.83;100.00
7407;BME280;3745;56.964;24.128;2023-04-28T00:19:27;101477.63;;;4.42;100.00
7407;BME280;3745;56.964;24.128;2023-04-28T00:21:53;101476.38;;;4.34;100.00
7407;BME280;3745;56.964;24.128;2023-04-28T00:24:19;101482.19;;;4.33;100.00
7407;BME280;3745;56.964;24.128;2023-04-28T00:26:44;101445.50;;;4.17;100.00
7407;BME280;3745;56.964;24.128;2023-04-28T00:29:10;101482.66;;;4.42;100.00
7407;BME280;3745;56.964;24.128;2023-04-28T00:31:36;101485.78;;;4.38;100.00
7407;BME280;3745;56.964;24.128;2023-04-28T00:34:01;101482.91;;;4.30;100.00
7407;BME280;3745;56.964;24.128;2023-04-28T00:36:27;101398.63;;;3.81;100.00
7407;BME280;3745;56.964;24.128;2023-04-28T00:38:56;101479.16;;;4.22;100.00
7407;BME280;3745;56.964;24.128;2023-04-28T00:41:22;101446.56;;;4.05;100.00
7407;BME280;3745;56.964;24.128;2023-04-28T00:43:49;101475.00;;;4.23;100.00
7407;BME280;3745;56.964;24.128;2023-04-28T00:46:28;101482.84;;;4.13;100.00
7407;BME280;3745;56.964;24.128;2023-04-28T00:48:54;101480.97;;;4.09;100.00
7407;BME280;3745;56.964;24.128;2023-04-28T00:51:20;101412.00;;;3.65;100.00
7407;BME280;3745;56.964;24.128;2023-04-28T00:53:48;101456.41;;;3.86;100.00
7407;BME280;3745;56.964;24.128;2023-04-28T00:56:14;101324.28;;;3.14;100.00
7407;BME280;3745;56.964;24.128;2023-04-28T00:58:40;101435.53;;;3.85;100.00
7407;BME280;3745;56.964;24.128;2023-04-28T01:01:08;101457.59;;;3.92;100.00
7407;BME280;3745;56.964;24.128;2023-04-28T01:03:36;101428.88;;;3.69;100.00
7407;BME280;3745;56.964;24.128;2023-04-28T01:06:06;101443.13;;;3.87;100.00
7407;BME280;3745;56.964;24.128;2023-04-28T01:08:33;101487.84;;;4.13;100.00
7407;BME280;3745;56.964;24.128;2023-04-28T01:10:59;101420.59;;;3.70;100.00
7407;BME280;3745;56.964;24.128;2023-04-28T01:13:26;101427.34;;;3.71;100.00
7407;BME280;3745;56.964;24.128;2023-04-28T01:15:53;101407.78;;;3.48;100.00
7407;BME280;3745;56.964;24.128;2023-04-28T01:18:20;101489.56;;;3.81;100.00
7407;BME280;3745;56.964;24.128;2023-04-28T01:20:45;101442.97;;;3.51;100.00
7407;BME280;3745;56.964;24.128;2023-04-28T01:23:12;101483.94;;;3.69;100.00
7407;BME280;3745;56.964;24.128;2023-04-28T01:25:37;101478.16;;;3.70;100.00
7407;BME280;3745;56.964;24.128;2023-04-28T01:28:03;101492.72;;;3.77;100.00
7407;BME280;3745;56.964;24.128;2023-04-28T01:30:29;101375.22;;;3.00;100.00
7407;BME280;3745;56.964;24.128;2023-04-28T01:32:54;101426.50;;;3.24;100.00
7407;BME280;3745;56.964;24.128;2023-04-28T01:35:20;101486.78;;;3.59;100.00
7407;BME280;3745;56.964;24.128;2023-04-28T01:37:46;101485.91;;;3.59;100.00
7407;BME280;3745;56.964;24.128;2023-04-28T01:40:12;101474.88;;;3.55;100.00
7407;BME280;3745;56.964;24.128;2023-04-28T01:42:37;101472.97;;;3.51;100.00
7407;BME280;3745;56.964;24.128;2023-04-28T01:45:03;101419.28;;;3.14;100.00
7407;BME280;3745;56.964;24.128;2023-04-28T01:47:30;101502.09;;;3.65;100.00
7407;BME280;3745;56.964;24.128;2023-04-28T01:49:55;101494.50;;;3.64;100.00
7407;BME280;3745;56.964;24.128;2023-04-28T01:52:21;101443.41;;;3.28;100.00
7407;BME280;3745;56.964;24.128;2023-04-28T01:54:49;101457.50;;;3.26;100.00
7407;BME280;3745;56.964;24.128;2023-04-28T01:57:15;101499.41;;;3.46;100.00
7407;BME280;3745;56.964;24.128;2023-04-28T01:59:41;101449.31;;;3.14;100.00
7407;BME280;3745;56.964;24.128;2023-04-28T02:02:06;101494.56;;;3.49;100.00
7407;BME280;3745;56.964;24.128;2023-04-28T02:04:32;101411.63;;;2.95;100.00
7407;BME280;3745;56.964;24.128;2023-04-28T02:06:58;101498.81;;;3.50;100.00
7407;BME280;3745;56.964;24.128;2023-04-28T02:09:24;101503.16;;;3.54;100.00
7407;BME280;3745;56.964;24.128;2023-04-28T02:11:50;101501.63;;;3.56;100.00
7407;BME280;3745;56.964;24.128;2023-04-28T02:14:15;101458.75;;;3.34;100.00
7407;BME280;3745;56.964;24.128;2023-04-28T02:16:41;101462.00;;;3.33;100.00
7407;BME280;3745;56.964;24.128;2023-04-28T02:19:07;101391.47;;;2.92;100.00
7407;BME280;3745;56.964;24.128;2023-04-28T02:21:32;101396.63;;;2.95;100.00
7407;BME280;3745;56.964;24.128;2023-04-28T02:23:58;101458.75;;;3.34;100.00
7407;BME280;3745;56.964;24.128;2023-04-28T02:26:23;101469.38;;;3.46;100.00
7407;BME280;3745;56.964;24.128;2023-04-28T02:28:50;101449.06;;;3.40;100.00
7407;BME280;3745;56.964;24.128;2023-04-28T02:31:16;101491.75;;;3.75;100.00
7407;BME280;3745;56.964;24.128;2023-04-28T02:33:41;101446.25;;;3.50;100.00
7407;BME280;3745;56.964;24.128;2023-04-28T02:36:07;101391.66;;;3.27;100.00
7407;BME280;3745;56.964;24.128;2023-04-28T02:38:34;101421.84;;;3.30;100.00
7407;BME280;3745;56.964;24.128;2023-04-28T02:41:01;101443.34;;;3.43;100.00
7407;BME280;3745;56.964;24.128;2023-04-28T02:43:27;101480.19;;;3.61;100.00
7407;BME280;3745;56.964;24.128;2023-04-28T02:45:53;101500.97;;;3.60;100.00
7407;BME280;3745;56.964;24.128;2023-04-28T02:48:19;101506.25;;;3.65;100.00
7407;BME280;3745;56.964;24.128;2023-04-28T02:50:45;101494.13;;;3.72;100.00
7407;BME280;3745;56.964;24.128;2023-04-28T02:53:11;101477.25;;;3.68;100.00
7407;BME280;3745;56.964;24.128;2023-04-28T02:55:36;101503.53;;;3.93;100.00
7407;BME280;3745;56.964;24.128;2023-04-28T02:58:02;101442.97;;;3.51;100.00
7407;BME280;3745;56.964;24.128;2023-04-28T03:00:28;101508.69;;;3.96;100.00
7407;BME280;3745;56.964;24.128;2023-04-28T03:02:53;101482.56;;;3.74;100.00
7407;BME280;3745;56.964;24.128;2023-04-28T03:05:19;101441.94;;;3.48;100.00
7407;BME280;3745;56.964;24.128;2023-04-28T03:07:45;101421.84;;;3.30;100.00
7407;BME280;3745;56.964;24.128;2023-04-28T03:10:10;101462.97;;;3.35;100.00
7407;BME280;3745;56.964;24.128;2023-04-28T03:12:36;101513.38;;;3.73;100.00
7407;BME280;3745;56.964;24.128;2023-04-28T03:15:02;101405.88;;;3.12;100.00
7407;BME280;3745;56.964;24.128;2023-04-28T03:17:27;101519.78;;;3.84;100.00
7407;BME280;3745;56.964;24.128;2023-04-28T03:19:53;101511.03;;;3.76;100.00
7407;BME280;3745;56.964;24.128;2023-04-28T03:22:19;101517.44;;;3.71;100.00
7407;BME280;3745;56.964;24.128;2023-04-28T03:24:45;101403.81;;;3.05;100.00
7407;BME280;3745;56.964;24.128;2023-04-28T03:27:11;101514.13;;;3.72;100.00
7407;BME280;3745;56.964;24.128;2023-04-28T03:29:36;101507.28;;;3.68;100.00
7407;BME280;3745;56.964;24.128;2023-04-28T03:32:02;101456.56;;;3.40;100.00
7407;BME280;3745;56.964;24.128;2023-04-28T03:34:27;101507.28;;;3.68;100.00
7407;BME280;3745;56.964;24.128;2023-04-28T03:36:53;101448.25;;;3.25;100.00
7407;BME280;3745;56.964;24.128;2023-04-28T03:39:18;101535.72;;;3.70;100.00
7407;BME280;3745;56.964;24.128;2023-04-28T03:41:44;101539.66;;;3.81;100.00
7407;BME280;3745;56.964;24.128;2023-04-28T03:44:10;101511.31;;;3.50;100.00
7407;BME280;3745;56.964;24.128;2023-04-28T03:46:35;101500.34;;;3.32;100.00
7407;BME280;3745;56.964;24.128;2023-04-28T03:49:01;101547.69;;;3.60;100.00
7407;BME280;3745;56.964;24.128;2023-04-28T03:51:28;101503.28;;;3.25;100.00
7407;BME280;3745;56.964;24.128;2023-04-28T03:53:54;101555.22;;;3.45;100.00
7407;BME280;3745;56.964;24.128;2023-04-28T03:56:19;101452.66;;;2.84;100.00
7407;BME280;3745;56.964;24.128;2023-04-28T03:58:46;101496.81;;;3.14;100.00
7407;BME280;3745;56.964;24.128;2023-04-28T04:01:11;101534.44;;;3.46;100.00
7407;BME280;3745;56.964;24.128;2023-04-28T04:03:37;101553.25;;;3.70;100.00
7407;BME280;3745;56.964;24.128;2023-04-28T04:06:02;101549.66;;;3.81;100.00
7407;BME280;3745;56.964;24.128;2023-04-28T04:08:29;101545.16;;;3.91;100.00
7407;BME280;3745;56.964;24.128;2023-04-28T04:10:55;101513.97;;;3.69;100.00
7407;BME280;3745;56.964;24.128;2023-04-28T04:13:21;101516.63;;;3.72;100.00
7407;BME280;3745;56.964;24.128;2023-04-28T04:15:50;101475.47;;;3.35;100.00
7407;BME280;3745;56.964;24.128;2023-04-28T04:18:17;101495.81;;;3.41;100.00
7407;BME280;3745;56.964;24.128;2023-04-28T04:20:43;101549.34;;;3.75;100.00
7407;BME280;3745;56.964;24.128;2023-04-28T04:23:08;101547.63;;;3.74;100.00
7407;BME280;3745;56.964;24.128;2023-04-28T04:25:34;101523.97;;;3.69;100.00
7407;BME280;3745;56.964;24.128;2023-04-28T04:28:00;101551.47;;;3.84;100.00
7407;BME280;3745;56.964;24.128;2023-04-28T04:30:26;101553.75;;;3.96;100.00
7407;BME280;3745;56.964;24.128;2023-04-28T04:32:52;101514.59;;;3.81;100.00
7407;BME280;3745;56.964;24.128;2023-04-28T04:35:17;101549.22;;;4.05;100.00
7407;BME280;3745;56.964;24.128;2023-04-28T04:37:43;101552.97;;;4.13;100.00
7407;BME280;3745;56.964;24.128;2023-04-28T04:40:09;101539.34;;;4.08;100.00
7407;BME280;3745;56.964;24.128;2023-04-28T04:42:35;101477.22;;;3.84;100.00
7407;BME280;3745;56.964;24.128;2023-04-28T04:45:01;101527.00;;;4.11;100.00
7407;BME280;3745;56.964;24.128;2023-04-28T04:47:26;101453.75;;;3.66;100.00
7407;BME280;3745;56.964;24.128;2023-04-28T04:49:52;101547.97;;;4.13;100.00
7407;BME280;3745;56.964;24.128;2023-04-28T04:52:18;101554.84;;;4.17;100.00
7407;BME280;3745;56.964;24.128;2023-04-28T04:54:44;101496.94;;;3.95;100.00
7407;BME280;3745;56.964;24.128;2023-04-28T04:57:11;101550.16;;;4.23;100.00
7407;BME280;3745;56.964;24.128;2023-04-28T04:59:36;101549.19;;;4.37;100.00
7407;BME280;3745;56.964;24.128;2023-04-28T05:02:02;101551.84;;;4.56;100.00
7407;BME280;3745;56.964;24.128;2023-04-28T05:04:28;101528.66;;;4.60;100.00
7407;BME280;3745;56.964;24.128;2023-04-28T05:06:53;101554.00;;;4.82;100.00
7407;BME280;3745;56.964;24.128;2023-04-28T05:09:19;101545.31;;;4.93;100.00
7407;BME280;3745;56.964;24.128;2023-04-28T05:11:45;101493.44;;;4.75;100.00
7407;BME280;3745;56.964;24.128;2023-04-28T05:14:11;101544.78;;;5.17;100.00
7407;BME280;3745;56.964;24.128;2023-04-28T05:16:37;101550.06;;;5.23;100.00
7407;BME280;3745;56.964;24.128;2023-04-28T05:19:03;101442.28;;;4.54;100.00
7407;BME280;3745;56.964;24.128;2023-04-28T05:21:29;101545.63;;;5.35;100.00
7407;BME280;3745;56.964;24.128;2023-04-28T05:23:55;101521.63;;;5.41;100.00
7407;BME280;3745;56.964;24.128;2023-04-28T05:26:22;101541.72;;;5.59;100.00
7407;BME280;3745;56.964;24.128;2023-04-28T05:28:47;101437.25;;;5.07;100.00
7407;BME280;3745;56.964;24.128;2023-04-28T05:31:13;101510.59;;;5.56;100.00
7407;BME280;3745;56.964;24.128;2023-04-28T05:33:39;101539.22;;;5.78;100.00
7407;BME280;3745;56.964;24.128;2023-04-28T05:36:05;101504.22;;;5.81;100.00
7407;BME280;3745;56.964;24.128;2023-04-28T05:38:31;101486.28;;;5.74;100.00
7407;BME280;3745;56.964;24.128;2023-04-28T05:40:58;101547.47;;;6.13;100.00
7407;BME280;3745;56.964;24.128;2023-04-28T05:43:24;101515.75;;;6.15;100.00
7407;BME280;3745;56.964;24.128;2023-04-28T05:45:49;101540.56;;;6.47;100.00
7407;BME280;3745;56.964;24.128;2023-04-28T05:48:15;101533.44;;;6.37;100.00
7407;BME280;3745;56.964;24.128;2023-04-28T05:50:41;101337.47;;;5.19;100.00
7407;BME280;3745;56.964;24.128;2023-04-28T05:53:06;101550.63;;;6.47;100.00
7407;BME280;3745;56.964;24.128;2023-04-28T05:55:32;101542.94;;;6.44;100.00
7407;BME280;3745;56.964;24.128;2023-04-28T05:57:58;101486.63;;;6.20;100.00
7407;BME280;3745;56.964;24.128;2023-04-28T06:00:24;101550.06;;;6.73;100.00
7407;BME280;3745;56.964;24.128;2023-04-28T06:02:50;101557.41;;;6.89;100.00
7407;BME280;3745;56.964;24.128;2023-04-28T06:05:16;101559.13;;;6.90;100.00
7407;BME280;3745;56.964;24.128;2023-04-28T06:07:42;101551.72;;;6.93;100.00
7407;BME280;3745;56.964;24.128;2023-04-28T06:10:08;101517.16;;;6.69;100.00
7407;BME280;3745;56.964;24.128;2023-04-28T06:12:33;101558.50;;;6.75;100.00
7407;BME280;3745;56.964;24.128;2023-04-28T06:14:59;101479.88;;;6.19;100.00
7407;BME280;3745;56.964;24.128;2023-04-28T06:17:25;101560.94;;;6.74;100.00
7407;BME280;3745;56.964;24.128;2023-04-28T06:19:50;101499.84;;;6.35;100.00
7407;BME280;3745;56.964;24.128;2023-04-28T06:22:19;101557.91;;;6.81;100.00
7407;BME280;3745;56.964;24.128;2023-04-28T06:24:44;101562.06;;;6.80;100.00
7407;BME280;3745;56.964;24.128;2023-04-28T06:27:10;101560.38;;;7.00;100.00
7407;BME280;3745;56.964;24.128;2023-04-28T06:29:37;101558.53;;;7.39;100.00
7407;BME280;3745;56.964;24.128;2023-04-28T06:32:02;101561.56;;;7.30;100.00
7407;BME280;3745;56.964;24.128;2023-04-28T06:34:28;101563.16;;;7.28;100.00
7407;BME280;3745;56.964;24.128;2023-04-28T06:36:57;101512.72;;;7.04;100.00
7407;BME280;3745;56.964;24.128;2023-04-28T06:39:23;101555.00;;;7.56;100.00
7407;BME280;3745;56.964;24.128;2023-04-28T06:41:48;101521.00;;;7.45;100.00
7407;BME280;3745;56.964;24.128;2023-04-28T06:44:14;101325.03;;;6.43;100.00
7407;BME280;3745;56.964;24.128;2023-04-28T06:46:40;101558.84;;;8.14;100.00
7407;BME280;3745;56.964;24.128;2023-04-28T06:49:06;101530.59;;;8.25;100.00
7407;BME280;3745;56.964;24.128;2023-04-28T06:51:32;101523.66;;;8.17;100.00
7407;BME280;3745;56.964;24.128;2023-04-28T06:53:58;101453.28;;;7.76;100.00
7407;BME280;3745;56.964;24.128;2023-04-28T06:56:23;101524.06;;;8.06;100.00
7407;BME280;3745;56.964;24.128;2023-04-28T06:58:49;101553.91;;;8.41;100.00
7407;BME280;3745;56.964;24.128;2023-04-28T07:01:15;101552.09;;;8.37;100.00
7407;BME280;3745;56.964;24.128;2023-04-28T07:03:44;101553.16;;;8.44;100.00
7407;BME280;3745;56.964;24.128;2023-04-28T07:06:10;101549.84;;;8.45;100.00
7407;BME280;3745;56.964;24.128;2023-04-28T07:08:37;101551.97;;;8.58;100.00
7407;BME280;3745;56.964;24.128;2023-04-28T07:11:02;101433.97;;;8.00;100.00
7407;BME280;3745;56.964;24.128;2023-04-28T07:13:32;101550.94;;;8.78;100.00
7407;BME280;3745;56.964;24.128;2023-04-28T07:15:58;101544.56;;;8.89;100.00
7407;BME280;3745;56.964;24.128;2023-04-28T07:18:23;101549.81;;;8.95;100.00
7407;BME280;3745;56.964;24.128;2023-04-28T07:20:50;101549.09;;;8.98;100.00
7407;BME280;3745;56.964;24.128;2023-04-28T07:23:15;101473.50;;;8.50;100.00
7407;BME280;3745;56.964;24.128;2023-04-28T07:25:41;101447.31;;;8.47;100.00
7407;BME280;3745;56.964;24.128;2023-04-28T07:28:07;101510.09;;;8.63;100.00
7407;BME280;3745;56.964;24.128;2023-04-28T07:30:34;101548.22;;;8.97;100.00
7407;BME280;3745;56.964;24.128;2023-04-28T07:33:01;101556.09;;;9.06;100.00
7407;BME280;3745;56.964;24.128;2023-04-28T07:35:27;101506.09;;;8.96;100.00
7407;BME280;3745;56.964;24.128;2023-04-28T07:37:53;101540.97;;;9.35;100.00
7407;BME280;3745;56.964;24.128;2023-04-28T07:40:20;101450.56;;;8.96;100.00
7407;BME280;3745;56.964;24.128;2023-04-28T07:42:46;101518.50;;;9.72;100.00
7407;BME280;3745;56.964;24.128;2023-04-28T07:45:13;101534.19;;;9.90;100.00
7407;BME280;3745;56.964;24.128;2023-04-28T07:47:40;101476.59;;;9.80;100.00
7407;BME280;3745;56.964;24.128;2023-04-28T07:50:07;101476.78;;;10.17;100.00
7407;BME280;3745;56.964;24.128;2023-04-28T07:52:33;101491.63;;;10.37;100.00
7407;BME280;3745;56.964;24.128;2023-04-28T07:55:00;101536.44;;;10.75;100.00
7407;BME280;3745;56.964;24.128;2023-04-28T07:57:27;101537.72;;;10.58;100.00
7407;BME280;3745;56.964;24.128;2023-04-28T07:59:53;101419.16;;;9.76;100.00
7407;BME280;3745;56.964;24.128;2023-04-28T08:02:19;101460.28;;;10.31;100.00
7407;BME280;3745;56.964;24.128;2023-04-28T08:04:45;101377.81;;;10.05;100.00
7407;BME280;3745;56.964;24.128;2023-04-28T08:07:11;101522.47;;;10.92;100.00
7407;BME280;3745;56.964;24.128;2023-04-28T08:09:37;101472.50;;;10.48;100.00
7407;BME280;3745;56.964;24.128;2023-04-28T08:12:04;101490.34;;;10.54;100.00
7407;BME280;3745;56.964;24.128;2023-04-28T08:14:30;101357.50;;;10.02;100.00
7407;BME280;3745;56.964;24.128;2023-04-28T08:16:57;101474.69;;;11.04;100.00
7407;BME280;3745;56.964;24.128;2023-04-28T08:19:23;101359.03;;;10.66;100.00
7407;BME280;3745;56.964;24.128;2023-04-28T08:21:48;101521.00;;;11.75;99.17
7407;BME280;3745;56.964;24.128;2023-04-28T08:24:14;101517.56;;;11.73;87.73
7407;BME280;3745;56.964;24.128;2023-04-28T08:26:40;101504.28;;;11.46;91.62
7407;BME280;3745;56.964;24.128;2023-04-28T08:29:06;101530.59;;;11.13;90.71
7407;BME280;3745;56.964;24.128;2023-04-28T08:31:31;101526.81;;;10.96;90.74
7407;BME280;3745;56.964;24.128;2023-04-28T08:33:57;101455.63;;;10.84;88.54
7407;BME280;3745;56.964;24.128;2023-04-28T08:36:24;101524.69;;;11.52;88.54
7407;BME280;3745;56.964;24.128;2023-04-28T08:38:53;101523.38;;;11.69;92.09
7407;BME280;3745;56.964;24.128;2023-04-28T08:41:20;101501.97;;;11.56;91.66
7407;BME280;3745;56.964;24.128;2023-04-28T08:43:47;101516.47;;;11.62;90.29
7407;BME280;3745;56.964;24.128;2023-04-28T08:46:13;101530.69;;;11.16;91.97
7407;BME280;3745;56.964;24.128;2023-04-28T08:48:42;101536.88;;;10.93;98.86
7407;BME280;3745;56.964;24.128;2023-04-28T08:51:14;101523.97;;;10.50;100.00
7407;BME280;3745;56.964;24.128;2023-04-28T08:53:48;101513.47;;;10.34;100.00
7407;BME280;3745;56.964;24.128;2023-04-28T08:56:16;101540.56;;;10.39;100.00
7407;BME280;3745;56.964;24.128;2023-04-28T08:58:42;101533.47;;;10.25;100.00
7407;BME280;3745;56.964;24.128;2023-04-28T09:01:08;101534.75;;;10.11;100.00
7407;BME280;3745;56.964;24.128;2023-04-28T09:03:33;101520.94;;;10.00;100.00
7407;BME280;3745;56.964;24.128;2023-04-28T09:06:01;101501.59;;;9.71;100.00
7407;BME280;3745;56.964;24.128;2023-04-28T09:08:27;101518.50;;;9.72;100.00
7407;BME280;3745;56.964;24.128;2023-04-28T09:11:06;101507.91;;;9.57;100.00
7407;BME280;3745;56.964;24.128;2023-04-28T09:13:33;101531.06;;;9.70;100.00
7407;BME280;3745;56.964;24.128;2023-04-28T09:15:59;101535.09;;;9.64;100.00
7407;BME280;3745;56.964;24.128;2023-04-28T09:18:27;101465.84;;;9.29;100.00
7407;BME280;3745;56.964;24.128;2023-04-28T09:21:10;101531.94;;;9.71;100.00
7407;BME280;3745;56.964;24.128;2023-04-28T09:23:49;101535.97;;;9.66;100.00
7407;BME280;3745;56.964;24.128;2023-04-28T09:26:15;101530.84;;;9.63;100.00
7407;BME280;3745;56.964;24.128;2023-04-28T09:28:40;101511.28;;;9.56;100.00
7407;BME280;3745;56.964;24.128;2023-04-28T09:31:21;101477.16;;;9.42;100.00
7407;BME280;3745;56.964;24.128;2023-04-28T09:33:59;101443.34;;;9.37;100.00
7407;BME280;3745;56.964;24.128;2023-04-28T09:36:29;101526.19;;;10.06;100.00
7407;BME280;3745;56.964;24.128;2023-04-28T09:38:58;101495.91;;;10.09;100.00
7407;BME280;3745;56.964;24.128;2023-04-28T09:41:44;101527.34;;;10.83;100.00
7407;BME280;3745;56.964;24.128;2023-04-28T09:44:13;101518.88;;;11.18;100.00
7407;BME280;3745;56.964;24.128;2023-04-28T09:46:40;101494.06;;;11.42;100.00
7407;BME280;3745;56.964;24.128;2023-04-28T09:49:06;101428.34;;;11.10;100.00
7407;BME280;3745;56.964;24.128;2023-04-28T09:51:32;101519.06;;;11.65;100.00
7407;BME280;3745;56.964;24.128;2023-04-28T09:54:00;101495.75;;;11.42;96.48
7407;BME280;3745;56.964;24.128;2023-04-28T09:56:28;101518.06;;;11.19;90.56
7407;BME280;3745;56.964;24.128;2023-04-28T09:58:59;101516.91;;;11.05;91.91
7407;BME280;3745;56.964;24.128;2023-04-28T10:01:40;101515.19;;;11.04;97.38
7407;BME280;3745;56.964;24.128;2023-04-28T10:04:08;101513.63;;;11.11;99.81
7407;BME280;3745;56.964;24.128;2023-04-28T10:06:36;101513.69;;;11.12;100.00
7407;BME280;3745;56.964;24.128;2023-04-28T10:09:02;101501.84;;;11.11;100.00
7407;BME280;3745;56.964;24.128;2023-04-28T10:11:28;101507.47;;;10.98;100.00
7407;BME280;3745;56.964;24.128;2023-04-28T10:14:04;101489.34;;;10.81;100.00
7407;BME280;3745;56.964;24.128;2023-04-28T10:16:57;101472.19;;;10.36;100.00
7407;BME280;3745;56.964;24.128;2023-04-28T10:19:24;101464.59;;;10.04;99.69
7407;BME280;3745;56.964;24.128;2023-04-28T10:27:19;101508.78;;;10.82;93.17
7407;BME280;3745;56.964;24.128;2023-04-28T10:29:46;101491.75;;;11.14;92.33
7407;BME280;3745;56.964;24.128;2023-04-28T10:32:23;101462.72;;;11.37;86.45
7407;BME280;3745;56.964;24.128;2023-04-28T10:38:07;101523.63;;;12.74;80.30
7407;BME280;3745;56.964;24.128;2023-04-28T10:43:03;101519.38;;;12.23;80.55
7407;BME280;3745;56.964;24.128;2023-04-28T10:48:14;101522.63;;;11.35;88.13
7407;BME280;3745;56.964;24.128;2023-04-28T10:56:22;101607.78;;;9.17;100.00
7407;BME280;3745;56.964;24.128;2023-04-28T11:03:50;101622.44;;;8.07;100.00
7407;BME280;3745;56.964;24.128;2023-04-28T11:06:19;101615.44;;;8.00;100.00
7407;BME280;3745;56.964;24.128;2023-04-28T11:08:51;101583.41;;;7.96;100.00
7407;BME280;3745;56.964;24.128;2023-04-28T11:11:21;101560.66;;;8.18;100.00
7407;BME280;3745;56.964;24.128;2023-04-28T11:13:48;101615.28;;;8.65;100.00
7407;BME280;3745;56.964;24.128;2023-04-28T11:16:16;101606.38;;;8.75;100.00
7407;BME280;3745;56.964;24.128;2023-04-28T11:18:59;101601.72;;;9.12;100.00
7407;BME280;3745;56.964;24.128;2023-04-28T11:21:29;101581.38;;;9.35;100.00
7407;BME280;3745;56.964;24.128;2023-04-28T11:23:56;101564.47;;;9.60;100.00
7407;BME280;3745;56.964;24.128;2023-04-28T11:26:23;101545.81;;;9.85;100.00
7407;BME280;3745;56.964;24.128;2023-04-28T11:28:51;101590.84;;;10.58;100.00
7407;BME280;3745;56.964;24.128;2023-04-28T11:31:18;101568.06;;;10.92;100.00
7407;BME280;3745;56.964;24.128;2023-04-28T11:33:50;101579.75;;;11.21;100.00
7407;BME280;3745;56.964;24.128;2023-04-28T11:39:06;101574.97;;;11.33;100.00
7407;BME280;3745;56.964;24.128;2023-04-28T11:41:40;101554.59;;;10.93;100.00
7407;BME280;3745;56.964;24.128;2023-04-28T11:44:21;101589.25;;;10.94;100.00
7407;BME280;3745;56.964;24.128;2023-04-28T11:46:55;101539.47;;;10.29;100.00
7407;BME280;3745;56.964;24.128;2023-04-28T11:49:58;101576.09;;;10.42;100.00
7407;BME280;3745;56.964;24.128;2023-04-28T11:52:16;101550.06;;;10.14;100.00
7407;BME280;3745;56.964;24.128;2023-04-28T11:54:42;101599.41;;;10.31;100.00
7407;BME280;3745;56.964;24.128;2023-04-28T11:57:20;101589.22;;;10.28;100.00
7407;BME280;3745;56.964;24.128;2023-04-28T11:59:48;101587.94;;;10.43;100.00
7407;BME280;3745;56.964;24.128;2023-04-28T12:02:13;101528.97;;;10.14;100.00
7407;BME280;3745;56.964;24.128;2023-04-28T12:04:42;101587.00;;;10.72;100.00
7407;BME280;3745;56.964;24.128;2023-04-28T12:07:16;101595.41;;;10.71;100.00
7407;BME280;3745;56.964;24.128;2023-04-28T12:09:44;101592.00;;;10.38;100.00
7407;BME280;3745;56.964;24.128;2023-04-28T12:12:27;101601.31;;;10.40;100.00
7407;BME280;3745;56.964;24.128;2023-04-28T12:14:58;101564.59;;;9.93;100.00
7407;BME280;3745;56.964;24.128;2023-04-28T12:17:30;101605.88;;;10.20;100.00
7407;BME280;3745;56.964;24.128;2023-04-28T12:19:59;101604.44;;;10.30;100.00
7407;BME280;3745;56.964;24.128;2023-04-28T12:22:26;101602.19;;;10.41;100.00
7407;BME280;3745;56.964;24.128;2023-04-28T12:25:09;101597.34;;;10.48;100.00
7407;BME280;3745;56.964;24.128;2023-04-28T12:27:36;101601.22;;;10.36;100.00
7407;BME280;3745;56.964;24.128;2023-04-28T12:30:23;101596.78;;;10.27;100.00
7407;BME280;3745;56.964;24.128;2023-04-28T12:32:49;101589.28;;;10.31;100.00
7407;BME280;3745;56.964;24.128;2023-04-28T12:35:15;101562.09;;;10.24;100.00
7407;BME280;3745;56.964;24.128;2023-04-28T12:37:42;101593.94;;;10.79;100.00
7407;BME280;3745;56.964;24.128;2023-04-28T12:40:08;101591.34;;;11.10;100.00
7407;BME280;3745;56.964;24.128;2023-04-28T12:42:34;101592.66;;;11.30;100.00
7407;BME280;3745;56.964;24.128;2023-04-28T12:45:00;101501.47;;;10.96;100.00
7407;BME280;3745;56.964;24.128;2023-04-28T12:47:25;101588.81;;;11.48;100.00
7407;BME280;3745;56.964;24.128;2023-04-28T12:49:51;101547.50;;;11.14;100.00
7407;BME280;3745;56.964;24.128;2023-04-28T12:52:18;101572.50;;;11.35;100.00
7407;BME280;3745;56.964;24.128;2023-04-28T12:54:44;101589.25;;;11.30;100.00
7407;BME280;3745;56.964;24.128;2023-04-28T12:57:16;101581.41;;;11.19;100.00
7407;BME280;3745;56.964;24.128;2023-04-28T12:59:43;101530.81;;;11.22;100.00
7407;BME280;3745;56.964;24.128;2023-04-28T13:02:09;101589.47;;;11.75;100.00
7407;BME280;3745;56.964;24.128;2023-04-28T13:04:35;101558.81;;;11.66;100.00
7407;BME280;3745;56.964;24.128;2023-04-28T13:07:01;101539.44;;;11.30;100.00
7407;BME280;3745;56.964;24.128;2023-04-28T13:09:27;101589.88;;;11.57;100.00
7407;BME280;3745;56.964;24.128;2023-04-28T13:11:52;101580.66;;;11.61;100.00
7407;BME280;3745;56.964;24.128;2023-04-28T13:14:21;101593.19;;;11.92;100.00
7407;BME280;3745;56.964;24.128;2023-04-28T13:16:47;101591.84;;;11.69;100.00
7407;BME280;3745;56.964;24.128;2023-04-28T13:19:13;101567.63;;;11.08;100.00
7407;BME280;3745;56.964;24.128;2023-04-28T13:21:39;101601.84;;;10.93;100.00
7407;BME280;3745;56.964;24.128;2023-04-28T13:24:07;101598.38;;;10.89;100.00